sensor_id;sensor_type;location;lat;lon;timestamp;temperature;humidity
18884;DHT22;9574;47.282;9.640;2023-03-01T00:02:17;2.40;99.90
18884;DHT22;9574;47.282;9.640;2023-03-01T00:04:44;2.70;99.90
18884;DHT22;9574;47.282;9.640;2023-03-01T00:07:11;2.90;99.90
18884;DHT22;9574;47.282;9.640;2023-03-01T00:09:38;3.00;99.90
18884;DHT22;9574;47.282;9.640;2023-03-01T00:12:06;3.10;99.90
18884;DHT22;9574;47.282;9.640;2023-03-01T00:14:33;3.10;99.90
18884;DHT22;9574;47.282;9.640;2023-03-01T00:17:01;3.20;99.90
18884;DHT22;9574;47.282;9.640;2023-03-01T00:19:28;3.20;99.90
18884;DHT22;9574;47.282;9.640;2023-03-01T00:21:55;3.30;99.90
18884;DHT22;9574;47.282;9.640;2023-03-01T00:24:22;3.30;99.90
18884;DHT22;9574;47.282;9.640;2023-03-01T00:26:52;3.30;99.90
18884;DHT22;9574;47.282;9.640;2023-03-01T00:29:21;3.20;99.90
18884;DHT22;9574;47.282;9.640;2023-03-01T00:31:48;3.20;99.90
18884;DHT22;9574;47.282;9.640;2023-03-01T00:34:16;3.20;99.90
18884;DHT22;9574;47.282;9.640;2023-03-01T00:36:43;3.30;99.90
18884;DHT22;9574;47.282;9.640;2023-03-01T00:39:12;3.30;99.90
18884;DHT22;9574;47.282;9.640;2023-03-01T00:41:39;3.10;99.90
18884;DHT22;9574;47.282;9.640;2023-03-01T00:44:06;3.10;99.90
18884;DHT22;9574;47.282;9.640;2023-03-01T00:46:33;3.20;99.90
18884;DHT22;9574;47.282;9.640;2023-03-01T00:49:00;3.10;99.90
18884;DHT22;9574;47.282;9.640;2023-03-01T00:51:29;3.20;99.90
18884;DHT22;9574;47.282;9.640;2023-03-01T00:53:58;3.20;99.90
18884;DHT22;9574;47.282;9.640;2023-03-01T00:56:26;3.10;99.90
18884;DHT22;9574;47.282;9.640;2023-03-01T00:58:53;3.20;99.90
18884;DHT22;9574;47.282;9.640;2023-03-01T01:01:22;3.10;99.90
18884;DHT22;9574;47.282;9.640;2023-03-01T01:03:52;3.20;99.90
18884;DHT22;9574;47.282;9.640;2023-03-01T01:06:21;3.20;99.90
18884;DHT22;9574;47.282;9.640;2023-03-01T01:08:50;3.20;99.90
18884;DHT22;9574;47.282;9.640;2023-03-01T01:11:18;3.20;99.90
18884;DHT22;9574;47.282;9.640;2023-03-01T01:13:46;3.20;99.90
18884;DHT22;9574;47.282;9.640;2023-03-01T01:16:14;3.20;99.90
18884;DHT22;9574;47.282;9.640;2023-03-01T01:18:41;3.20;99.90
18884;DHT22;9574;47.282;9.640;2023-03-01T01:21:10;3.10;99.90
18884;DHT22;9574;47.282;9.640;2023-03-01T01:23:38;3.20;99.90
18884;DHT22;9574;47.282;9.640;2023-03-01T01:26:09;3.20;99.90
18884;DHT22;9574;47.282;9.640;2023-03-01T01:28:37;3.20;99.90
18884;DHT22;9574;47.282;9.640;2023-03-01T01:31:04;3.20;99.90
18884;DHT22;9574;47.282;9.640;2023-03-01T01:33:31;3.20;99.90
18884;DHT22;9574;47.282;9.640;2023-03-01T01:35:59;3.20;99.90
18884;DHT22;9574;47.282;9.640;2023-03-01T01:38:26;3.10;99.90
18884;DHT22;9574;47.282;9.640;2023-03-01T01:40:53;3.20;99.90
18884;DHT22;9574;47.282;9.640;2023-03-01T01:43:23;3.20;99.90
18884;DHT22;9574;47.282;9.640;2023-03-01T01:45:53;3.10;99.90
18884;DHT22;9574;47.282;9.640;2023-03-01T01:48:24;3.10;99.90
18884;DHT22;9574;47.282;9.640;2023-03-01T01:51:09;3.10;99.90
18884;DHT22;9574;47.282;9.640;2023-03-01T01:53:37;3.10;99.90
18884;DHT22;9574;47.282;9.640;2023-03-01T01:56:06;3.10;99.90
18884;DHT22;9574;47.282;9.640;2023-03-01T01:58:36;3.10;99.90
18884;DHT22;9574;47.282;9.640;2023-03-01T02:01:03;3.10;99.90
18884;DHT22;9574;47.282;9.640;2023-03-01T02:03:32;3.10;99.90
18884;DHT22;9574;47.282;9.640;2023-03-01T02:06:06;3.10;99.90
18884;DHT22;9574;47.282;9.640;2023-03-01T02:08:36;3.10;99.90
18884;DHT22;9574;47.282;9.640;2023-03-01T02:11:04;3.10;99.90
18884;DHT22;9574;47.282;9.640;2023-03-01T02:13:33;3.10;99.90
18884;DHT22;9574;47.282;9.640;2023-03-01T02:16:04;3.10;99.90
18884;DHT22;9574;47.282;9.640;2023-03-01T02:18:31;3.00;99.90
18884;DHT22;9574;47.282;9.640;2023-03-01T02:21:13;3.00;99.90
18884;DHT22;9574;47.282;9.640;2023-03-01T02:23:43;3.00;99.90
18884;DHT22;9574;47.282;9.640;2023-03-01T02:26:17;3.00;99.90
18884;DHT22;9574;47.282;9.640;2023-03-01T02:28:47;3.00;99.90
18884;DHT22;9574;47.282;9.640;2023-03-01T02:31:16;2.90;99.90
18884;DHT22;9574;47.282;9.640;2023-03-01T02:34:03;2.90;99.90
18884;DHT22;9574;47.282;9.640;2023-03-01T02:36:35;2.90;99.90
18884;DHT22;9574;47.282;9.640;2023-03-01T02:39:04;2.90;99.90
18884;DHT22;9574;47.282;9.640;2023-03-01T02:41:35;3.00;99.90
18884;DHT22;9574;47.282;9.640;2023-03-01T02:44:05;3.00;99.90
18884;DHT22;9574;47.282;9.640;2023-03-01T02:46:32;3.00;99.90
18884;DHT22;9574;47.282;9.640;2023-03-01T02:48:59;2.80;99.90
18884;DHT22;9574;47.282;9.640;2023-03-01T02:51:35;2.50;99.90
18884;DHT22;9574;47.282;9.640;2023-03-01T02:54:15;2.60;99.90
18884;DHT22;9574;47.282;9.640;2023-03-01T02:56:45;2.70;99.90
18884;DHT22;9574;47.282;9.640;2023-03-01T02:59:16;2.80;99.90
18884;DHT22;9574;47.282;9.640;2023-03-01T03:01:44;2.60;99.90
18884;DHT22;9574;47.282;9.640;2023-03-01T03:04:14;2.30;99.90
18884;DHT22;9574;47.282;9.640;2023-03-01T03:06:42;2.30;99.90
18884;DHT22;9574;47.282;9.640;2023-03-01T03:09:09;2.40;99.90
18884;DHT22;9574;47.282;9.640;2023-03-01T03:11:36;2.60;99.90
18884;DHT22;9574;47.282;9.640;2023-03-01T03:14:04;2.80;99.90
18884;DHT22;9574;47.282;9.640;2023-03-01T03:16:36;2.80;99.90
18884;DHT22;9574;47.282;9.640;2023-03-01T03:19:03;2.50;99.90
18884;DHT22;9574;47.282;9.640;2023-03-01T03:21:31;2.40;99.90
18884;DHT22;9574;47.282;9.640;2023-03-01T03:23:58;2.50;99.90
18884;DHT22;9574;47.282;9.640;2023-03-01T03:26:25;2.60;99.90
18884;DHT22;9574;47.282;9.640;2023-03-01T03:28:53;2.70;99.90
18884;DHT22;9574;47.282;9.640;2023-03-01T03:31:20;2.80;99.90
18884;DHT22;9574;47.282;9.640;2023-03-01T03:33:48;2.80;99.90
18884;DHT22;9574;47.282;9.640;2023-03-01T03:36:16;2.60;99.90
18884;DHT22;9574;47.282;9.640;2023-03-01T03:38:44;2.50;99.90
18884;DHT22;9574;47.282;9.640;2023-03-01T03:41:12;2.20;99.90
18884;DHT22;9574;47.282;9.640;2023-03-01T03:43:40;2.10;99.90
18884;DHT22;9574;47.282;9.640;2023-03-01T03:46:08;2.40;99.90
18884;DHT22;9574;47.282;9.640;2023-03-01T03:48:37;2.50;99.90
18884;DHT22;9574;47.282;9.640;2023-03-01T03:51:06;2.60;99.90
18884;DHT22;9574;47.282;9.640;2023-03-01T03:53:33;2.70;99.90
18884;DHT22;9574;47.282;9.640;2023-03-01T03:56:00;2.70;99.90
18884;DHT22;9574;47.282;9.640;2023-03-01T03:58:27;2.80;99.90
18884;DHT22;9574;47.282;9.640;2023-03-01T04:00:56;2.80;99.90
18884;DHT22;9574;47.282;9.640;2023-03-01T04:03:25;2.70;99.90
18884;DHT22;9574;47.282;9.640;2023-03-01T04:05:52;2.70;99.90
18884;DHT22;9574;47.282;9.640;2023-03-01T04:08:22;2.80;99.90
18884;DHT22;9574;47.282;9.640;2023-03-01T04:10:51;2.90;99.90
18884;DHT22;9574;47.282;9.640;2023-03-01T04:13:20;2.90;99.90
18884;DHT22;9574;47.282;9.640;2023-03-01T04:15:48;2.80;99.90
18884;DHT22;9574;47.282;9.640;2023-03-01T04:18:17;2.80;99.90
18884;DHT22;9574;47.282;9.640;2023-03-01T04:20:45;2.80;99.90
18884;DHT22;9574;47.282;9.640;2023-03-01T04:23:13;2.80;99.90
18884;DHT22;9574;47.282;9.640;2023-03-01T04:25:48;2.80;99.90
18884;DHT22;9574;47.282;9.640;2023-03-01T04:28:21;2.70;99.90
18884;DHT22;9574;47.282;9.640;2023-03-01T04:30:50;2.40;99.90
18884;DHT22;9574;47.282;9.640;2023-03-01T04:33:17;2.60;99.90
18884;DHT22;9574;47.282;9.640;2023-03-01T04:35:45;2.70;99.90
18884;DHT22;9574;47.282;9.640;2023-03-01T04:38:15;2.70;99.90
18884;DHT22;9574;47.282;9.640;2023-03-01T04:40:42;2.80;99.90
18884;DHT22;9574;47.282;9.640;2023-03-01T04:43:13;2.80;99.90
18884;DHT22;9574;47.282;9.640;2023-03-01T04:45:40;2.80;99.90
18884;DHT22;9574;47.282;9.640;2023-03-01T04:48:07;2.90;99.90
18884;DHT22;9574;47.282;9.640;2023-03-01T04:50:34;2.90;99.90
18884;DHT22;9574;47.282;9.640;2023-03-01T04:53:02;2.80;99.90
18884;DHT22;9574;47.282;9.640;2023-03-01T04:55:29;2.90;99.90
18884;DHT22;9574;47.282;9.640;2023-03-01T04:57:57;2.90;99.90
18884;DHT22;9574;47.282;9.640;2023-03-01T05:00:25;2.90;99.90
18884;DHT22;9574;47.282;9.640;2023-03-01T05:02:54;2.90;99.90
18884;DHT22;9574;47.282;9.640;2023-03-01T05:05:26;2.90;99.90
18884;DHT22;9574;47.282;9.640;2023-03-01T05:07:54;2.90;99.90
18884;DHT22;9574;47.282;9.640;2023-03-01T05:10:22;2.90;99.90
18884;DHT22;9574;47.282;9.640;2023-03-01T05:12:49;2.80;99.90
18884;DHT22;9574;47.282;9.640;2023-03-01T05:15:17;2.80;99.90
18884;DHT22;9574;47.282;9.640;2023-03-01T05:17:46;2.80;99.90
18884;DHT22;9574;47.282;9.640;2023-03-01T05:20:13;2.80;99.90
18884;DHT22;9574;47.282;9.640;2023-03-01T05:22:40;2.80;99.90
18884;DHT22;9574;47.282;9.640;2023-03-01T05:25:07;2.70;99.90
18884;DHT22;9574;47.282;9.640;2023-03-01T05:27:35;2.50;99.90
18884;DHT22;9574;47.282;9.640;2023-03-01T05:30:02;2.70;99.90
18884;DHT22;9574;47.282;9.640;2023-03-01T05:32:42;2.80;99.90
18884;DHT22;9574;47.282;9.640;2023-03-01T05:35:12;2.60;99.90
18884;DHT22;9574;47.282;9.640;2023-03-01T05:37:43;2.40;99.90
18884;DHT22;9574;47.282;9.640;2023-03-01T05:40:12;2.30;99.90
18884;DHT22;9574;47.282;9.640;2023-03-01T05:42:46;2.50;99.90
18884;DHT22;9574;47.282;9.640;2023-03-01T05:45:14;2.60;99.90
18884;DHT22;9574;47.282;9.640;2023-03-01T05:47:42;2.60;99.90
18884;DHT22;9574;47.282;9.640;2023-03-01T05:50:15;2.60;99.90
18884;DHT22;9574;47.282;9.640;2023-03-01T05:52:45;2.70;99.90
18884;DHT22;9574;47.282;9.640;2023-03-01T05:55:12;2.70;99.90
18884;DHT22;9574;47.282;9.640;2023-03-01T05:57:39;2.70;99.90
18884;DHT22;9574;47.282;9.640;2023-03-01T06:00:07;2.60;99.90
18884;DHT22;9574;47.282;9.640;2023-03-01T06:02:34;2.60;99.90
18884;DHT22;9574;47.282;9.640;2023-03-01T06:05:02;2.70;99.90
18884;DHT22;9574;47.282;9.640;2023-03-01T06:07:31;2.40;99.90
18884;DHT22;9574;47.282;9.640;2023-03-01T06:09:58;2.20;99.90
18884;DHT22;9574;47.282;9.640;2023-03-01T06:12:25;2.40;99.90
18884;DHT22;9574;47.282;9.640;2023-03-01T06:14:52;2.30;99.90
18884;DHT22;9574;47.282;9.640;2023-03-01T06:17:19;2.50;99.90
18884;DHT22;9574;47.282;9.640;2023-03-01T06:19:46;2.40;99.90
18884;DHT22;9574;47.282;9.640;2023-03-01T06:22:13;2.60;99.90
18884;DHT22;9574;47.282;9.640;2023-03-01T06:24:42;2.60;99.90
18884;DHT22;9574;47.282;9.640;2023-03-01T06:27:09;2.10;99.90
18884;DHT22;9574;47.282;9.640;2023-03-01T06:29:35;1.90;99.90
18884;DHT22;9574;47.282;9.640;2023-03-01T06:32:03;2.20;99.90
18884;DHT22;9574;47.282;9.640;2023-03-01T06:34:30;2.40;99.90
18884;DHT22;9574;47.282;9.640;2023-03-01T06:36:57;2.50;99.90
18884;DHT22;9574;47.282;9.640;2023-03-01T06:39:24;2.50;99.90
18884;DHT22;9574;47.282;9.640;2023-03-01T06:41:53;2.60;99.90
18884;DHT22;9574;47.282;9.640;2023-03-01T06:44:20;2.70;99.90
18884;DHT22;9574;47.282;9.640;2023-03-01T06:46:47;2.80;99.90
18884;DHT22;9574;47.282;9.640;2023-03-01T06:49:14;2.80;99.90
18884;DHT22;9574;47.282;9.640;2023-03-01T06:51:41;2.90;99.90
18884;DHT22;9574;47.282;9.640;2023-03-01T06:54:09;2.90;99.90
18884;DHT22;9574;47.282;9.640;2023-03-01T06:56:36;2.90;99.90
18884;DHT22;9574;47.282;9.640;2023-03-01T06:59:04;2.90;99.90
18884;DHT22;9574;47.282;9.640;2023-03-01T07:01:31;2.90;99.90
18884;DHT22;9574;47.282;9.640;2023-03-01T07:03:58;3.00;99.90
18884;DHT22;9574;47.282;9.640;2023-03-01T07:06:25;3.00;99.90
18884;DHT22;9574;47.282;9.640;2023-03-01T07:08:52;2.80;99.90
18884;DHT22;9574;47.282;9.640;2023-03-01T07:11:19;2.50;99.90
18884;DHT22;9574;47.282;9.640;2023-03-01T07:13:46;2.60;99.90
18884;DHT22;9574;47.282;9.640;2023-03-01T07:16:14;2.70;99.90
18884;DHT22;9574;47.282;9.640;2023-03-01T07:18:42;2.70;99.90
18884;DHT22;9574;47.282;9.640;2023-03-01T07:21:12;2.70;99.90
18884;DHT22;9574;47.282;9.640;2023-03-01T07:23:40;2.70;99.90
18884;DHT22;9574;47.282;9.640;2023-03-01T07:26:07;2.80;99.90
18884;DHT22;9574;47.282;9.640;2023-03-01T07:28:34;2.90;99.90
18884;DHT22;9574;47.282;9.640;2023-03-01T07:31:05;2.90;99.90
18884;DHT22;9574;47.282;9.640;2023-03-01T07:33:33;2.90;99.90
18884;DHT22;9574;47.282;9.640;2023-03-01T07:36:02;2.80;99.90
18884;DHT22;9574;47.282;9.640;2023-03-01T07:38:29;2.60;99.90
18884;DHT22;9574;47.282;9.640;2023-03-01T07:41:01;2.40;99.90
18884;DHT22;9574;47.282;9.640;2023-03-01T07:43:28;2.50;99.90
18884;DHT22;9574;47.282;9.640;2023-03-01T07:45:58;2.60;99.90
18884;DHT22;9574;47.282;9.640;2023-03-01T07:48:25;2.60;99.90
18884;DHT22;9574;47.282;9.640;2023-03-01T07:50:54;2.70;99.90
18884;DHT22;9574;47.282;9.640;2023-03-01T07:53:21;2.80;99.90
18884;DHT22;9574;47.282;9.640;2023-03-01T07:55:48;2.90;99.90
18884;DHT22;9574;47.282;9.640;2023-03-01T07:58:15;3.10;99.90
18884;DHT22;9574;47.282;9.640;2023-03-01T08:00:41;3.20;99.90
18884;DHT22;9574;47.282;9.640;2023-03-01T08:03:09;3.30;99.90
18884;DHT22;9574;47.282;9.640;2023-03-01T08:05:36;3.10;99.90
18884;DHT22;9574;47.282;9.640;2023-03-01T08:08:04;3.10;99.90
18884;DHT22;9574;47.282;9.640;2023-03-01T08:10:31;3.10;99.90
18884;DHT22;9574;47.282;9.640;2023-03-01T08:12:58;3.10;99.90
18884;DHT22;9574;47.282;9.640;2023-03-01T08:15:25;3.20;99.90
18884;DHT22;9574;47.282;9.640;2023-03-01T08:17:52;2.80;99.90
18884;DHT22;9574;47.282;9.640;2023-03-01T08:20:19;2.60;99.90
18884;DHT22;9574;47.282;9.640;2023-03-01T08:22:46;2.30;99.90
18884;DHT22;9574;47.282;9.640;2023-03-01T08:25:15;2.00;99.90
18884;DHT22;9574;47.282;9.640;2023-03-01T08:27:42;1.90;99.90
18884;DHT22;9574;47.282;9.640;2023-03-01T08:30:10;1.90;99.90
18884;DHT22;9574;47.282;9.640;2023-03-01T08:32:38;1.80;99.90
18884;DHT22;9574;47.282;9.640;2023-03-01T08:35:06;1.90;99.90
18884;DHT22;9574;47.282;9.640;2023-03-01T08:37:33;2.20;99.90
18884;DHT22;9574;47.282;9.640;2023-03-01T08:40:00;2.40;99.90
18884;DHT22;9574;47.282;9.640;2023-03-01T08:42:28;2.60;99.90
18884;DHT22;9574;47.282;9.640;2023-03-01T08:44:55;2.40;99.90
18884;DHT22;9574;47.282;9.640;2023-03-01T08:47:22;2.20;99.90
18884;DHT22;9574;47.282;9.640;2023-03-01T08:49:49;2.20;99.90
18884;DHT22;9574;47.282;9.640;2023-03-01T08:52:17;2.20;99.90
18884;DHT22;9574;47.282;9.640;2023-03-01T08:54:44;2.20;99.90
18884;DHT22;9574;47.282;9.640;2023-03-01T08:57:11;2.40;99.90
18884;DHT22;9574;47.282;9.640;2023-03-01T08:59:39;2.80;99.90
18884;DHT22;9574;47.282;9.640;2023-03-01T09:02:16;3.00;99.90
18884;DHT22;9574;47.282;9.640;2023-03-01T09:04:44;2.70;99.90
18884;DHT22;9574;47.282;9.640;2023-03-01T09:07:11;2.50;99.90
18884;DHT22;9574;47.282;9.640;2023-03-01T09:09:38;2.50;99.90
18884;DHT22;9574;47.282;9.640;2023-03-01T09:12:05;2.50;99.90
18884;DHT22;9574;47.282;9.640;2023-03-01T09:14:33;2.40;99.90
18884;DHT22;9574;47.282;9.640;2023-03-01T09:17:04;2.30;99.90
18884;DHT22;9574;47.282;9.640;2023-03-01T09:19:31;2.30;99.90
18884;DHT22;9574;47.282;9.640;2023-03-01T09:21:58;2.20;99.90
18884;DHT22;9574;47.282;9.640;2023-03-01T09:24:25;2.20;99.90
18884;DHT22;9574;47.282;9.640;2023-03-01T09:26:55;2.30;99.90
18884;DHT22;9574;47.282;9.640;2023-03-01T09:29:23;2.30;99.90
18884;DHT22;9574;47.282;9.640;2023-03-01T09:31:50;2.30;99.90
18884;DHT22;9574;47.282;9.640;2023-03-01T09:34:21;2.30;99.90
18884;DHT22;9574;47.282;9.640;2023-03-01T09:36:49;2.40;99.90
18884;DHT22;9574;47.282;9.640;2023-03-01T09:39:17;2.40;99.90
18884;DHT22;9574;47.282;9.640;2023-03-01T09:41:49;2.40;99.90
18884;DHT22;9574;47.282;9.640;2023-03-01T09:44:27;2.50;99.90
18884;DHT22;9574;47.282;9.640;2023-03-01T09:46:55;2.50;99.90
18884;DHT22;9574;47.282;9.640;2023-03-01T09:49:26;2.60;99.90
18884;DHT22;9574;47.282;9.640;2023-03-01T09:51:58;2.90;99.90
18884;DHT22;9574;47.282;9.640;2023-03-01T09:54:26;3.10;99.90
18884;DHT22;9574;47.282;9.640;2023-03-01T09:57:05;3.20;99.90
18884;DHT22;9574;47.282;9.640;2023-03-01T09:59:42;2.90;99.90
18884;DHT22;9574;47.282;9.640;2023-03-01T10:02:23;3.10;99.90
18884;DHT22;9574;47.282;9.640;2023-03-01T10:04:59;3.20;99.90
18884;DHT22;9574;47.282;9.640;2023-03-01T10:07:38;3.10;99.90
18884;DHT22;9574;47.282;9.640;2023-03-01T10:10:25;3.00;99.90
18884;DHT22;9574;47.282;9.640;2023-03-01T10:12:53;2.80;99.90
18884;DHT22;9574;47.282;9.640;2023-03-01T10:15:30;2.70;99.90
18884;DHT22;9574;47.282;9.640;2023-03-01T10:18:04;3.00;99.90
18884;DHT22;9574;47.282;9.640;2023-03-01T10:20:42;3.30;99.90
18884;DHT22;9574;47.282;9.640;2023-03-01T10:23:10;3.50;99.90
18884;DHT22;9574;47.282;9.640;2023-03-01T10:25:47;3.70;99.90
18884;DHT22;9574;47.282;9.640;2023-03-01T10:28:25;3.90;99.90
18884;DHT22;9574;47.282;9.640;2023-03-01T10:30:53;4.00;99.90
18884;DHT22;9574;47.282;9.640;2023-03-01T10:33:23;4.10;99.90
18884;DHT22;9574;47.282;9.640;2023-03-01T10:35:52;4.20;99.90
18884;DHT22;9574;47.282;9.640;2023-03-01T10:38:19;4.10;99.90
18884;DHT22;9574;47.282;9.640;2023-03-01T10:40:52;4.10;99.90
18884;DHT22;9574;47.282;9.640;2023-03-01T10:43:20;4.00;99.90
18884;DHT22;9574;47.282;9.640;2023-03-01T10:45:48;3.80;99.90
18884;DHT22;9574;47.282;9.640;2023-03-01T10:48:17;4.00;99.90
18884;DHT22;9574;47.282;9.640;2023-03-01T10:50:46;4.10;99.90
18884;DHT22;9574;47.282;9.640;2023-03-01T10:53:27;4.60;99.90
18884;DHT22;9574;47.282;9.640;2023-03-01T10:56:02;4.80;99.90
18884;DHT22;9574;47.282;9.640;2023-03-01T10:58:29;5.40;99.90
18884;DHT22;9574;47.282;9.640;2023-03-01T11:00:58;5.70;99.90
18884;DHT22;9574;47.282;9.640;2023-03-01T11:03:27;6.10;99.90
18884;DHT22;9574;47.282;9.640;2023-03-01T11:06:04;6.80;99.90
18884;DHT22;9574;47.282;9.640;2023-03-01T11:08:41;7.40;99.90
18884;DHT22;9574;47.282;9.640;2023-03-01T11:11:26;8.10;99.90
18884;DHT22;9574;47.282;9.640;2023-03-01T11:13:58;8.80;99.90
18884;DHT22;9574;47.282;9.640;2023-03-01T11:16:29;8.70;99.90
18884;DHT22;9574;47.282;9.640;2023-03-01T11:19:00;8.30;99.90
18884;DHT22;9574;47.282;9.640;2023-03-01T11:21:29;7.70;99.90
18884;DHT22;9574;47.282;9.640;2023-03-01T11:24:01;7.40;99.90
18884;DHT22;9574;47.282;9.640;2023-03-01T11:26:31;7.20;99.90
18884;DHT22;9574;47.282;9.640;2023-03-01T11:29:12;6.80;99.90
18884;DHT22;9574;47.282;9.640;2023-03-01T11:31:42;6.70;99.90
18884;DHT22;9574;47.282;9.640;2023-03-01T11:34:14;6.40;99.90
18884;DHT22;9574;47.282;9.640;2023-03-01T11:36:49;6.10;99.90
18884;DHT22;9574;47.282;9.640;2023-03-01T11:39:26;6.10;99.90
18884;DHT22;9574;47.282;9.640;2023-03-01T11:42:02;6.10;99.90
18884;DHT22;9574;47.282;9.640;2023-03-01T11:44:33;6.20;99.90
18884;DHT22;9574;47.282;9.640;2023-03-01T11:47:19;6.10;99.90
18884;DHT22;9574;47.282;9.640;2023-03-01T11:50:12;5.80;99.90
18884;DHT22;9574;47.282;9.640;2023-03-01T11:52:48;5.50;99.90
18884;DHT22;9574;47.282;9.640;2023-03-01T11:55:30;5.50;99.90
18884;DHT22;9574;47.282;9.640;2023-03-01T11:58:20;5.60;99.90
18884;DHT22;9574;47.282;9.640;2023-03-01T12:01:08;5.40;99.90
18884;DHT22;9574;47.282;9.640;2023-03-01T12:03:57;5.40;99.90
18884;DHT22;9574;47.282;9.640;2023-03-01T12:06:43;5.40;99.90
18884;DHT22;9574;47.282;9.640;2023-03-01T12:09:25;5.30;99.90
18884;DHT22;9574;47.282;9.640;2023-03-01T12:12:07;5.40;99.90
18884;DHT22;9574;47.282;9.640;2023-03-01T12:14:55;5.50;99.90
18884;DHT22;9574;47.282;9.640;2023-03-01T12:17:47;5.60;99.90
18884;DHT22;9574;47.282;9.640;2023-03-01T12:20:22;5.70;99.90
18884;DHT22;9574;47.282;9.640;2023-03-01T12:23:10;5.80;99.90
18884;DHT22;9574;47.282;9.640;2023-03-01T12:25:48;5.70;99.90
18884;DHT22;9574;47.282;9.640;2023-03-01T12:31:44;5.60;99.90
18884;DHT22;9574;47.282;9.640;2023-03-01T12:34:27;5.60;99.90
18884;DHT22;9574;47.282;9.640;2023-03-01T12:37:18;5.70;99.90
18884;DHT22;9574;47.282;9.640;2023-03-01T12:42:44;5.80;99.90
18884;DHT22;9574;47.282;9.640;2023-03-01T12:45:37;5.90;99.90
18884;DHT22;9574;47.282;9.640;2023-03-01T12:48:24;6.20;99.90
18884;DHT22;9574;47.282;9.640;2023-03-01T12:50:55;6.60;99.90
18884;DHT22;9574;47.282;9.640;2023-03-01T12:53:28;6.70;99.90
18884;DHT22;9574;47.282;9.640;2023-03-01T12:55:59;6.90;99.90
18884;DHT22;9574;47.282;9.640;2023-03-01T12:58:31;7.10;99.90
18884;DHT22;9574;47.282;9.640;2023-03-01T13:01:25;7.50;99.90
18884;DHT22;9574;47.282;9.640;2023-03-01T13:07:11;7.70;99.90
18884;DHT22;9574;47.282;9.640;2023-03-01T13:09:48;7.50;99.90
18884;DHT22;9574;47.282;9.640;2023-03-01T13:12:45;7.20;99.90
18884;DHT22;9574;47.282;9.640;2023-03-01T13:15:28;6.80;99.90
18884;DHT22;9574;47.282;9.640;2023-03-01T13:17:58;6.50;99.90
18884;DHT22;9574;47.282;9.640;2023-03-01T13:20:31;6.50;99.90
18884;DHT22;9574;47.282;9.640;2023-03-01T13:23:11;6.50;99.90
18884;DHT22;9574;47.282;9.640;2023-03-01T13:26:04;6.40;99.90
18884;DHT22;9574;47.282;9.640;2023-03-01T13:29:00;6.10;99.90
18884;DHT22;9574;47.282;9.640;2023-03-01T13:32:01;6.00;99.90
18884;DHT22;9574;47.282;9.640;2023-03-01T13:35:25;6.00;99.90
18884;DHT22;9574;47.282;9.640;2023-03-01T13:37:46;6.00;99.90
18884;DHT22;9574;47.282;9.640;2023-03-01T13:40:58;6.10;99.90
18884;DHT22;9574;47.282;9.640;2023-03-01T13:43:32;6.10;99.90
18884;DHT22;9574;47.282;9.640;2023-03-01T13:46:00;6.30;99.90
18884;DHT22;9574;47.282;9.640;2023-03-01T13:48:30;6.20;99.90
18884;DHT22;9574;47.282;9.640;2023-03-01T13:51:00;6.20;99.90
18884;DHT22;9574;47.282;9.640;2023-03-01T13:53:33;6.10;99.90
18884;DHT22;9574;47.282;9.640;2023-03-01T13:56:02;6.10;99.90
18884;DHT22;9574;47.282;9.640;2023-03-01T13:58:33;6.20;99.90
18884;DHT22;9574;47.282;9.640;2023-03-01T14:01:21;6.20;99.90
18884;DHT22;9574;47.282;9.640;2023-03-01T14:03:49;6.00;99.90
18884;DHT22;9574;47.282;9.640;2023-03-01T14:06:21;6.00;99.90
18884;DHT22;9574;47.282;9.640;2023-03-01T14:08:51;6.10;99.90
18884;DHT22;9574;47.282;9.640;2023-03-01T14:11:43;6.00;99.90
18884;DHT22;9574;47.282;9.640;2023-03-01T14:14:32;6.00;99.90
18884;DHT22;9574;47.282;9.640;2023-03-01T14:17:19;5.90;99.90
18884;DHT22;9574;47.282;9.640;2023-03-01T14:19:56;5.80;99.90
18884;DHT22;9574;47.282;9.640;2023-03-01T14:22:27;5.80;99.90
18884;DHT22;9574;47.282;9.640;2023-03-01T14:24:56;5.80;99.90
18884;DHT22;9574;47.282;9.640;2023-03-01T14:27:26;5.80;99.90
18884;DHT22;9574;47.282;9.640;2023-03-01T14:29:55;5.70;99.90
18884;DHT22;9574;47.282;9.640;2023-03-01T14:32:25;5.70;99.90
18884;DHT22;9574;47.282;9.640;2023-03-01T14:34:52;5.80;99.90
18884;DHT22;9574;47.282;9.640;2023-03-01T14:37:22;5.80;99.90
18884;DHT22;9574;47.282;9.640;2023-03-01T14:39:53;5.80;99.90
18884;DHT22;9574;47.282;9.640;2023-03-01T14:42:22;5.60;99.90
18884;DHT22;9574;47.282;9.640;2023-03-01T14:44:51;5.50;99.90
18884;DHT22;9574;47.282;9.640;2023-03-01T14:47:26;5.50;99.90
18884;DHT22;9574;47.282;9.640;2023-03-01T14:49:58;5.40;99.90
18884;DHT22;9574;47.282;9.640;2023-03-01T14:52:31;5.40;99.90
18884;DHT22;9574;47.282;9.640;2023-03-01T14:55:03;5.50;99.90
18884;DHT22;9574;47.282;9.640;2023-03-01T14:57:30;5.50;99.90
18884;DHT22;9574;47.282;9.640;2023-03-01T14:59:59;5.50;99.90
18884;DHT22;9574;47.282;9.640;2023-03-01T15:02:30;5.40;99.90
18884;DHT22;9574;47.282;9.640;2023-03-01T15:05:00;5.20;99.90
18884;DHT22;9574;47.282;9.640;2023-03-01T15:07:30;5.10;99.90
18884;DHT22;9574;47.282;9.640;2023-03-01T15:09:58;5.00;99.90
18884;DHT22;9574;47.282;9.640;2023-03-01T15:12:41;5.00;99.90
18884;DHT22;9574;47.282;9.640;2023-03-01T15:15:36;5.00;99.90
18884;DHT22;9574;47.282;9.640;2023-03-01T15:18:13;4.90;99.90
18884;DHT22;9574;47.282;9.640;2023-03-01T15:20:41;4.90;99.90
18884;DHT22;9574;47.282;9.640;2023-03-01T15:23:19;4.90;99.90
18884;DHT22;9574;47.282;9.640;2023-03-01T15:25:47;4.90;99.90
18884;DHT22;9574;47.282;9.640;2023-03-01T15:28:24;4.90;99.90
18884;DHT22;9574;47.282;9.640;2023-03-01T15:30:55;4.90;99.90
18884;DHT22;9574;47.282;9.640;2023-03-01T15:33:37;4.90;99.90
18884;DHT22;9574;47.282;9.640;2023-03-01T15:36:35;4.90;99.90
18884;DHT22;9574;47.282;9.640;2023-03-01T15:39:04;4.80;99.90
18884;DHT22;9574;47.282;9.640;2023-03-01T15:41:37;4.80;99.90
18884;DHT22;9574;47.282;9.640;2023-03-01T15:44:16;4.80;99.90
18884;DHT22;9574;47.282;9.640;2023-03-01T15:46:46;4.70;99.90
18884;DHT22;9574;47.282;9.640;2023-03-01T15:49:27;4.60;99.90
18884;DHT22;9574;47.282;9.640;2023-03-01T15:51:54;4.70;99.90
18884;DHT22;9574;47.282;9.640;2023-03-01T15:54:24;4.60;99.90
18884;DHT22;9574;47.282;9.640;2023-03-01T15:56:51;4.50;99.90
18884;DHT22;9574;47.282;9.640;2023-03-01T15:59:20;4.50;99.90
18884;DHT22;9574;47.282;9.640;2023-03-01T16:01:48;4.50;99.90
18884;DHT22;9574;47.282;9.640;2023-03-01T16:04:17;4.50;99.90
18884;DHT22;9574;47.282;9.640;2023-03-01T16:06:49;4.50;99.90
18884;DHT22;9574;47.282;9.640;2023-03-01T16:09:21;4.50;99.90
18884;DHT22;9574;47.282;9.640;2023-03-01T16:11:48;4.50;99.90
18884;DHT22;9574;47.282;9.640;2023-03-01T16:14:15;4.50;99.90
18884;DHT22;9574;47.282;9.640;2023-03-01T16:16:44;4.40;99.90
18884;DHT22;9574;47.282;9.640;2023-03-01T16:19:11;4.30;99.90
18884;DHT22;9574;47.282;9.640;2023-03-01T16:21:39;4.30;99.90
18884;DHT22;9574;47.282;9.640;2023-03-01T16:24:06;4.20;99.90
18884;DHT22;9574;47.282;9.640;2023-03-01T16:26:33;4.20;99.90
18884;DHT22;9574;47.282;9.640;2023-03-01T16:29:00;4.10;99.90
18884;DHT22;9574;47.282;9.640;2023-03-01T16:31:27;4.10;99.90
18884;DHT22;9574;47.282;9.640;2023-03-01T16:33:57;4.10;99.90
18884;DHT22;9574;47.282;9.640;2023-03-01T16:36:25;4.10;99.90
18884;DHT22;9574;47.282;9.640;2023-03-01T16:38:54;4.10;99.90